Ajo, Arizona
Current Conditions -  °F | °C
As of 12:15 PM on Thursday 27 Nov 2014 (Local Time) from KBXK Reporting Station
Clear Clear  
Wind Chill: 75°   Ceiling: Unl
Heat Index: 75°   Visibility: 10mi
Dew Point: 27°   Wind: 8mph
Humidity: 17%   Direction: 90°E
Pressure: 30.15"   Gusts: NA
Location:  32.37°N, 112.86°W
Report Text: KBXK 271915Z AUTO 09007KT 10SM CLR 24/M03 A3015 RMK AO1
Loading
Personal Weather Stations






























Interactive Weather Map New forecast layout! Learn more

10-Day Weather Forecast

Advertisements
Track Severe Weather on mobile